Manitou Springs, Colorado
Current Conditions -  °F | °C
As of 8:56 AM on Saturday 20 Dec 2014 (Local Time) from KCWN Reporting Station
Scattered Clouds Scattered Clouds  
Wind Chill:   Ceiling: Unl
Heat Index:   Visibility: 10mi
Dew Point: -10°   Wind: 0mph
Humidity: 36%   Direction: NA
Pressure: 30"   Gusts: NA
Location:  38.86°N, 104.92°W
Report Text: KCWN 201556Z AUTO 00000KT 10SM SCT150 SCT160 04/M10 A3000 RMK AO2 SLP169 T00351103
Loading
Personal Weather Stations






























Interactive Weather Map New forecast layout! Learn more

10-Day Weather Forecast

Advertisements
Track Severe Weather on mobile